Archival Weather

Chicago O'Hare International

Chicago, Illinois (KORD)

Report from: Monday, January 23, 2023 4:51 AM CST
Current time: Thursday, July 18, 2024 10:03 PM CDT

Current weather – Weather history – Daily summaries
Weather forecast

Temperature-5.6°C (21.9°F)
Wind chill-10.8°C (12.5°F)
Dew point-7.8°C (18.0°F)
Winds 7 kts (3.6 m/s, 8.1 mph) Northwest (310°)
Visibility8 mi. (12.9 km)
Clouds Ceiling: Overcast 900 ft. (274 m)
Altimeter30.03 in.Hg (1017 mB)
Relative humidity84 %
Density altitude-2,651 ft. (-808 m)
Sea-level pressure101.8 kPa (1018 mB, 30.06 in.Hg)
Remarks System requires maintenance
Automated weather observing station with precipitation discriminator
Flight conditions Instrument Meteorological Conditions
Raw dataKORD 231051Z 31007KT 8SM OVC009 M06/M08 A3003 RMK AO2 SLP178 T10561078 $
An error has occurred. This application may no longer respond until reloaded. Reload 🗙